createdAt,value
2018-08-18T00:00:05.137Z,94.30
2018-08-18T00:02:39.500Z,94.40
2018-08-18T00:05:13.704Z,94.60
2018-08-18T00:07:47.759Z,94.70
2018-08-18T00:10:21.277Z,94.90
2018-08-18T00:12:50.224Z,95.10
2018-08-18T00:15:19.400Z,95.10
2018-08-18T00:17:48.258Z,95.20
2018-08-18T00:20:20.929Z,95.30
2018-08-18T00:22:49.710Z,95.60
2018-08-18T00:25:18.449Z,95.60
2018-08-18T00:27:47.235Z,95.70
2018-08-18T00:30:21.294Z,95.90
2018-08-18T00:32:50.018Z,96.10
2018-08-18T00:35:18.825Z,96.00
2018-08-18T00:37:47.637Z,96.30
2018-08-18T00:40:16.475Z,96.50
2018-08-18T00:42:45.287Z,96.40
2018-08-18T00:45:14.500Z,96.50
2018-08-18T00:47:43.247Z,96.70
2018-08-18T00:50:16.247Z,97.00
2018-08-18T00:52:45.408Z,97.00
2018-08-18T00:55:14.121Z,97.10
2018-08-18T00:57:42.831Z,97.10
2018-08-18T01:00:11.618Z,97.30
2018-08-18T01:02:40.333Z,97.10
2018-08-18T01:05:09.093Z,97.30
2018-08-18T01:07:37.929Z,97.30
2018-08-18T01:10:06.721Z,97.10
2018-08-18T01:12:37.995Z,97.30
2018-08-18T01:15:13.000Z,97.40
2018-08-18T01:17:45.958Z,97.70
2018-08-18T01:20:19.162Z,97.50
2018-08-18T01:23:00.530Z,97.60
2018-08-18T01:25:36.482Z,97.40
2018-08-18T01:28:10.334Z,97.50
2018-08-18T01:30:51.443Z,97.70
2018-08-18T01:33:24.725Z,97.70
2018-08-18T01:35:59.764Z,97.50
2018-08-18T01:38:33.555Z,97.70
2018-08-18T01:41:15.345Z,97.70
2018-08-18T01:43:51.642Z,97.80
2018-08-18T01:46:23.197Z,98.10
2018-08-18T01:48:56.960Z,98.20
2018-08-18T01:51:30.169Z,98.20
2018-08-18T01:54:03.092Z,98.50
2018-08-18T01:56:36.445Z,98.50
2018-08-18T01:59:12.603Z,98.60
2018-08-18T02:01:50.177Z,98.60
2018-08-18T02:04:23.433Z,98.90
2018-08-18T02:07:02.154Z,99.20
2018-08-18T02:09:37.211Z,99.00
2018-08-18T02:12:11.581Z,99.00
2018-08-18T02:14:47.632Z,99.20
2018-08-18T02:17:30.565Z,99.20
2018-08-18T02:20:04.738Z,99.50
2018-08-18T02:22:37.870Z,99.50
2018-08-18T02:25:10.973Z,99.60
2018-08-18T02:27:44.986Z,99.70
2018-08-18T02:30:24.054Z,99.80
2018-08-18T02:32:59.185Z,99.80
2018-08-18T02:35:33.208Z,99.90
2018-08-18T02:38:08.511Z,99.90
2018-08-18T02:40:45.318Z,99.90
2018-08-18T02:43:24.559Z,99.90
2018-08-18T02:45:59.366Z,99.90
2018-08-18T02:48:32.524Z,99.90
2018-08-18T02:51:06.325Z,99.90
2018-08-18T02:53:39.460Z,99.90
2018-08-18T02:56:13.613Z,99.90
2018-08-18T02:59:18.443Z,99.90
2018-08-18T03:01:52.945Z,99.90
2018-08-18T03:04:28.682Z,99.90
2018-08-18T03:07:01.842Z,99.90
2018-08-18T03:09:38.033Z,99.90
2018-08-18T03:12:09.439Z,99.90
2018-08-18T03:14:43.376Z,99.90
2018-08-18T03:17:14.537Z,99.90
2018-08-18T03:19:46.679Z,99.90
2018-08-18T03:22:19.525Z,99.90
2018-08-18T03:24:51.920Z,99.90
2018-08-18T03:27:24.812Z,99.90
2018-08-18T03:29:57.919Z,99.90
2018-08-18T03:32:30.563Z,99.90
2018-08-18T03:35:03.519Z,99.90
2018-08-18T03:37:36.836Z,99.90
2018-08-18T03:40:09.010Z,99.90
2018-08-18T03:42:44.055Z,99.90
2018-08-18T03:45:16.998Z,99.90
2018-08-18T03:47:50.155Z,99.90
2018-08-18T03:50:24.091Z,99.90
2018-08-18T03:52:57.746Z,99.90
2018-08-18T03:55:39.219Z,99.90
2018-08-18T03:58:11.979Z,99.90
2018-08-18T04:00:46.397Z,99.90
2018-08-18T04:03:19.978Z,99.90
2018-08-18T04:05:53.215Z,99.90
2018-08-18T04:08:27.618Z,99.90
2018-08-18T04:10:59.470Z,99.90
2018-08-18T04:13:32.195Z,99.90
2018-08-18T04:16:08.485Z,99.90
2018-08-18T04:18:40.837Z,99.90
2018-08-18T04:21:13.226Z,99.90
2018-08-18T04:23:45.734Z,99.90
2018-08-18T04:26:19.506Z,99.90
2018-08-18T04:28:51.800Z,99.90
2018-08-18T04:31:29.496Z,99.90
2018-08-18T04:34:02.520Z,99.90
2018-08-18T04:36:34.179Z,99.90
2018-08-18T04:39:09.978Z,99.90
2018-08-18T04:41:41.238Z,99.90
2018-08-18T04:44:15.107Z,99.90
2018-08-18T04:46:45.756Z,99.90
2018-08-18T04:49:16.830Z,99.90
2018-08-18T04:51:47.941Z,99.90
2018-08-18T04:54:20.378Z,99.90
2018-08-18T04:56:52.048Z,99.90
2018-08-18T04:59:25.256Z,99.90
2018-08-18T05:01:58.127Z,99.90
2018-08-18T05:04:30.746Z,99.90
2018-08-18T05:07:03.567Z,99.90
2018-08-18T05:09:36.047Z,99.90
2018-08-18T05:12:08.095Z,99.90
2018-08-18T05:14:40.610Z,99.90
2018-08-18T05:17:16.536Z,99.90
2018-08-18T05:19:55.206Z,99.90
2018-08-18T05:22:28.822Z,99.90
2018-08-18T05:25:02.089Z,99.90
2018-08-18T05:27:34.351Z,99.90
2018-08-18T05:30:08.062Z,99.90
2018-08-18T05:32:39.995Z,99.90
2018-08-18T05:35:13.470Z,99.90
2018-08-18T05:37:53.735Z,99.90
2018-08-18T05:40:26.301Z,99.90
2018-08-18T05:42:59.403Z,99.90
2018-08-18T05:45:33.272Z,99.90
2018-08-18T05:48:06.264Z,99.90
2018-08-18T05:50:40.116Z,99.90
2018-08-18T05:53:23.833Z,99.90
2018-08-18T05:55:56.694Z,99.90
2018-08-18T05:58:31.814Z,99.90
2018-08-18T06:01:08.452Z,99.90
2018-08-18T06:03:40.694Z,99.90
2018-08-18T06:06:12.251Z,99.90
2018-08-18T06:08:44.323Z,99.90
2018-08-18T06:11:13.057Z,99.90
2018-08-18T06:13:41.770Z,99.90
2018-08-18T06:16:12.021Z,99.90
2018-08-18T06:18:41.317Z,99.90
2018-08-18T06:21:10.044Z,99.90
2018-08-18T06:23:39.445Z,99.90
2018-08-18T06:26:08.462Z,99.90
2018-08-18T06:28:37.249Z,99.90
2018-08-18T06:31:06.060Z,99.90
2018-08-18T06:33:34.749Z,99.90
2018-08-18T06:36:04.223Z,99.90
2018-08-18T06:38:33.297Z,99.90
2018-08-18T06:41:03.031Z,99.90
2018-08-18T06:43:33.055Z,99.90
2018-08-18T06:46:02.116Z,99.90
2018-08-18T06:48:33.905Z,99.90
2018-08-18T06:51:02.825Z,99.90
2018-08-18T06:53:37.051Z,99.90
2018-08-18T06:56:06.081Z,99.90
2018-08-18T06:58:34.932Z,99.90
2018-08-18T07:01:03.928Z,99.90
2018-08-18T07:03:39.601Z,99.90
2018-08-18T07:06:10.277Z,99.90
2018-08-18T07:08:44.326Z,99.90
2018-08-18T07:11:13.092Z,99.90
2018-08-18T07:13:42.570Z,99.90
2018-08-18T07:16:11.501Z,99.90
2018-08-18T07:18:40.287Z,99.90
2018-08-18T07:21:09.064Z,99.90
2018-08-18T07:23:37.821Z,99.90
2018-08-18T07:26:07.041Z,99.90
2018-08-18T07:28:35.819Z,99.90
2018-08-18T07:31:04.516Z,99.90
2018-08-18T07:33:33.320Z,99.90
2018-08-18T07:36:02.276Z,99.90
2018-08-18T07:38:31.203Z,98.70
2018-08-18T07:40:59.958Z,99.00
2018-08-18T07:43:31.926Z,99.10
2018-08-18T07:46:02.262Z,98.70
2018-08-18T07:48:31.089Z,98.30
2018-08-18T07:50:59.837Z,97.20
2018-08-18T07:53:28.634Z,97.00
2018-08-18T07:55:57.428Z,96.70
2018-08-18T07:58:26.272Z,96.00
2018-08-18T08:00:57.629Z,95.90
2018-08-18T08:03:26.374Z,95.80
2018-08-18T08:05:55.126Z,95.50
2018-08-18T08:08:23.812Z,95.50
2018-08-18T08:10:58.005Z,96.00
2018-08-18T08:13:26.709Z,95.30
2018-08-18T08:15:55.510Z,94.90
2018-08-18T08:18:24.386Z,94.20
2018-08-18T08:20:53.117Z,94.30
2018-08-18T08:23:21.978Z,93.40
2018-08-18T08:25:50.759Z,93.70
2018-08-18T08:28:19.629Z,93.40
2018-08-18T08:30:48.291Z,93.50
2018-08-18T08:33:31.101Z,92.70
2018-08-18T08:35:59.786Z,92.40
2018-08-18T08:38:38.448Z,92.30
2018-08-18T08:41:09.770Z,91.70
2018-08-18T08:43:38.600Z,91.20
2018-08-18T08:46:07.456Z,91.40
2018-08-18T08:48:36.333Z,91.10
2018-08-18T08:51:05.282Z,91.30
2018-08-18T08:53:34.067Z,90.80
2018-08-18T08:56:02.821Z,89.90
2018-08-18T08:58:32.088Z,90.30
2018-08-18T09:01:00.773Z,88.00
2018-08-18T09:03:29.487Z,87.00
2018-08-18T09:05:58.149Z,86.80
2018-08-18T09:08:26.997Z,87.80
2018-08-18T09:10:55.721Z,88.40
2018-08-18T09:13:24.449Z,89.00
2018-08-18T09:15:53.271Z,88.30
2018-08-18T09:18:22.090Z,89.00
2018-08-18T09:20:50.877Z,89.80
2018-08-18T09:23:19.607Z,88.10
2018-08-18T09:25:48.431Z,84.70
2018-08-18T09:28:17.144Z,84.60
2018-08-18T09:30:46.768Z,84.80
2018-08-18T09:33:15.516Z,83.00
2018-08-18T09:35:55.717Z,83.60
2018-08-18T09:38:24.523Z,82.40
2018-08-18T09:40:53.318Z,82.60
2018-08-18T09:43:23.120Z,82.50
2018-08-18T09:45:52.800Z,80.90
2018-08-18T09:48:21.658Z,80.20
2018-08-18T09:50:50.425Z,79.00
2018-08-18T09:53:19.212Z,80.80
2018-08-18T09:55:47.996Z,77.80
2018-08-18T09:58:16.769Z,76.90
2018-08-18T10:00:45.551Z,76.90
2018-08-18T10:03:14.384Z,77.80
2018-08-18T10:05:43.132Z,76.90
2018-08-18T10:08:11.933Z,75.10
2018-08-18T10:10:40.638Z,75.80
2018-08-18T10:13:09.355Z,76.50
2018-08-18T10:15:38.101Z,77.20
2018-08-18T10:18:06.797Z,75.40
2018-08-18T10:20:39.688Z,70.60
2018-08-18T10:23:10.433Z,70.80
2018-08-18T10:25:39.177Z,70.30
2018-08-18T10:28:07.925Z,68.60
2018-08-18T10:30:36.707Z,69.80
2018-08-18T10:33:05.664Z,69.10
2018-08-18T10:35:34.454Z,69.70
2018-08-18T10:38:04.509Z,71.80
2018-08-18T10:40:33.250Z,72.60
2018-08-18T10:43:02.024Z,71.40
2018-08-18T10:45:30.781Z,69.40
2018-08-18T10:47:59.464Z,70.00
2018-08-18T10:51:38.827Z,68.20
2018-08-18T10:54:07.439Z,69.30
2018-08-18T10:56:36.206Z,67.10
2018-08-18T10:59:19.621Z,66.10
2018-08-18T11:02:03.937Z,62.70
2018-08-18T11:04:34.986Z,63.60
2018-08-18T11:07:04.214Z,61.80
2018-08-18T11:09:33.453Z,62.10
2018-08-18T11:12:02.934Z,62.00
2018-08-18T11:14:31.817Z,61.00
2018-08-18T11:17:00.628Z,57.90
2018-08-18T11:19:29.448Z,59.10
2018-08-18T11:22:09.251Z,59.10
2018-08-18T11:24:38.102Z,59.20
2018-08-18T11:27:06.832Z,60.00
2018-08-18T11:29:35.549Z,58.40
2018-08-18T11:32:05.342Z,59.80
2018-08-18T11:34:33.998Z,60.30
2018-08-18T11:37:06.126Z,59.10
2018-08-18T11:39:34.806Z,57.00
2018-08-18T11:42:03.504Z,58.50
2018-08-18T11:44:32.248Z,58.70
2018-08-18T11:47:01.255Z,57.20
2018-08-18T11:49:30.229Z,58.90
2018-08-18T11:51:58.944Z,57.60
2018-08-18T11:54:27.662Z,57.40
2018-08-18T11:56:56.342Z,55.50
2018-08-18T11:59:25.076Z,56.10
2018-08-18T12:01:55.480Z,55.40
2018-08-18T12:04:24.576Z,54.40
2018-08-18T12:06:58.445Z,55.40
2018-08-18T12:09:27.714Z,56.40
2018-08-18T12:11:56.482Z,55.00
2018-08-18T12:14:25.228Z,56.00
2018-08-18T12:16:53.976Z,56.10
2018-08-18T12:19:22.722Z,58.50
2018-08-18T12:21:51.542Z,55.30
2018-08-18T12:24:21.163Z,55.40
2018-08-18T12:27:01.328Z,56.00
2018-08-18T12:29:31.705Z,57.50
2018-08-18T12:32:00.425Z,57.90
2018-08-18T12:34:29.204Z,57.80
2018-08-18T12:36:58.030Z,58.50
2018-08-18T12:39:26.739Z,57.90
2018-08-18T12:41:55.469Z,55.90
2018-08-18T12:44:31.305Z,56.70
2018-08-18T12:47:02.752Z,56.70
2018-08-18T12:49:32.070Z,58.10
2018-08-18T12:52:00.843Z,58.50
2018-08-18T12:54:29.584Z,56.70
2018-08-18T12:56:58.304Z,55.80
2018-08-18T12:59:26.997Z,56.00
2018-08-18T13:01:55.741Z,56.70
2018-08-18T13:04:24.449Z,55.40
2018-08-18T13:06:54.368Z,56.00
2018-08-18T13:09:28.042Z,56.70
2018-08-18T13:11:58.327Z,54.80
2018-08-18T13:14:28.768Z,55.50
2018-08-18T13:16:57.523Z,56.30
2018-08-18T13:19:29.875Z,55.20
2018-08-18T13:21:58.635Z,55.00
2018-08-18T13:24:29.702Z,55.50
2018-08-18T13:26:59.877Z,55.80
2018-08-18T13:29:28.742Z,56.20
2018-08-18T13:31:57.628Z,56.20
2018-08-18T13:34:26.334Z,57.40
2018-08-18T13:36:55.100Z,56.90
2018-08-18T13:39:23.805Z,55.80
2018-08-18T13:41:52.557Z,55.60
2018-08-18T13:44:29.763Z,55.00
2018-08-18T13:46:58.578Z,54.40
2018-08-18T13:49:27.989Z,54.60
2018-08-18T13:51:56.804Z,54.90
2018-08-18T13:54:25.541Z,55.60
2018-08-18T13:56:54.317Z,54.20
2018-08-18T13:59:54.811Z,54.80
2018-08-18T14:02:23.537Z,54.20
2018-08-18T14:04:53.056Z,53.90
2018-08-18T14:07:21.802Z,53.80
2018-08-18T14:10:05.908Z,54.20
2018-08-18T14:12:34.703Z,55.10
2018-08-18T14:15:03.510Z,53.50
2018-08-18T14:17:32.349Z,53.10
2018-08-18T14:20:01.014Z,54.10
2018-08-18T14:22:29.748Z,54.00
2018-08-18T14:24:58.522Z,54.80
2018-08-18T14:27:27.229Z,54.30
2018-08-18T14:29:55.984Z,54.70
2018-08-18T14:32:27.656Z,53.30
2018-08-18T14:35:11.872Z,54.80
2018-08-18T14:37:42.081Z,54.00
2018-08-18T14:40:15.157Z,53.50
2018-08-18T14:42:44.155Z,53.10
2018-08-18T14:45:15.102Z,53.50
2018-08-18T14:47:44.086Z,53.20
2018-08-18T14:50:27.808Z,52.80
2018-08-18T14:52:56.663Z,53.90
2018-08-18T14:55:25.337Z,53.40
2018-08-18T14:58:01.418Z,53.50
2018-08-18T15:00:30.333Z,53.30
2018-08-18T15:02:59.080Z,53.00
2018-08-18T15:05:27.872Z,53.40
2018-08-18T15:07:57.486Z,54.20
2018-08-18T15:10:37.239Z,53.90
2018-08-18T15:13:06.820Z,53.50
2018-08-18T15:15:36.044Z,54.00
2018-08-18T15:18:06.220Z,52.50
2018-08-18T15:20:36.251Z,52.20
2018-08-18T15:23:06.066Z,51.80
2018-08-18T15:25:35.783Z,52.10
2018-08-18T15:28:05.930Z,51.90
2018-08-18T15:30:35.976Z,52.30
2018-08-18T15:33:04.881Z,52.40
2018-08-18T15:35:36.218Z,51.90
2018-08-18T15:38:05.836Z,51.90
2018-08-18T15:40:34.595Z,51.10
2018-08-18T15:43:03.633Z,51.80
2018-08-18T15:45:32.908Z,51.10
2018-08-18T15:48:03.478Z,51.70
2018-08-18T15:50:32.232Z,52.10
2018-08-18T15:53:00.929Z,53.10
2018-08-18T15:55:29.708Z,51.80
2018-08-18T15:57:58.443Z,51.20
2018-08-18T16:00:34.254Z,50.50
2018-08-18T16:03:03.113Z,50.80
2018-08-18T16:05:32.783Z,51.00
2018-08-18T16:08:01.493Z,50.50
2018-08-18T16:10:30.277Z,50.10
2018-08-18T16:12:58.971Z,50.40
2018-08-18T16:15:27.673Z,50.20
2018-08-18T16:17:56.435Z,50.50
2018-08-18T16:20:27.040Z,50.50
2018-08-18T16:22:57.097Z,51.00
2018-08-18T16:25:35.558Z,50.50
2018-08-18T16:28:05.166Z,50.30
2018-08-18T16:30:34.469Z,51.50
2018-08-18T16:33:14.665Z,50.60
2018-08-18T16:35:44.564Z,49.90
2018-08-18T16:38:13.326Z,50.00
2018-08-18T16:40:42.347Z,50.50
2018-08-18T16:43:13.401Z,49.60
2018-08-18T16:45:42.231Z,49.70
2018-08-18T16:48:12.522Z,49.70
2018-08-18T16:50:41.905Z,50.20
2018-08-18T16:53:11.849Z,49.50
2018-08-18T16:55:41.935Z,50.10
2018-08-18T16:58:10.704Z,49.80
2018-08-18T17:00:55.912Z,50.20
2018-08-18T17:03:31.491Z,49.90
2018-08-18T17:06:01.569Z,50.50
2018-08-18T17:08:30.721Z,49.90
2018-08-18T17:10:59.842Z,50.30
2018-08-18T17:13:31.215Z,49.90
2018-08-18T17:15:59.978Z,50.10
2018-08-18T17:18:28.703Z,50.40
2018-08-18T17:21:01.688Z,50.20
2018-08-18T17:23:32.028Z,50.30
2018-08-18T17:26:00.894Z,50.10
2018-08-18T17:28:30.395Z,49.60
2018-08-18T17:31:01.100Z,50.20
2018-08-18T17:33:29.926Z,50.00
2018-08-18T17:35:58.635Z,50.60
2018-08-18T17:38:27.309Z,50.70
2018-08-18T17:40:56.066Z,50.50
2018-08-18T17:43:24.877Z,50.90
2018-08-18T17:46:03.043Z,50.90
2018-08-18T17:48:38.534Z,51.00
2018-08-18T17:51:07.293Z,51.30
2018-08-18T17:53:36.269Z,51.00
2018-08-18T17:56:05.028Z,51.10
2018-08-18T17:58:33.757Z,51.00
2018-08-18T18:01:02.613Z,51.30
2018-08-18T18:03:31.619Z,51.30
2018-08-18T18:06:00.390Z,51.40
2018-08-18T18:08:29.113Z,52.00
2018-08-18T18:10:58.061Z,51.90
2018-08-18T18:13:28.788Z,51.70
2018-08-18T18:15:57.510Z,51.40
2018-08-18T18:18:46.398Z,51.40
2018-08-18T18:21:15.249Z,52.00
2018-08-18T18:23:43.974Z,51.80
2018-08-18T18:26:12.735Z,51.80
2018-08-18T18:28:41.525Z,51.80
2018-08-18T18:31:10.357Z,52.20
2018-08-18T18:33:39.227Z,52.20
2018-08-18T18:36:08.023Z,52.40
2018-08-18T18:38:57.843Z,52.40
2018-08-18T18:41:26.836Z,52.80
2018-08-18T18:43:59.948Z,53.00
2018-08-18T18:46:28.677Z,53.10
2018-08-18T18:48:57.853Z,53.00
2018-08-18T18:51:26.818Z,53.20
2018-08-18T18:53:57.518Z,53.90
2018-08-18T18:56:26.268Z,53.40
2018-08-18T18:58:55.068Z,53.30
2018-08-18T19:01:30.947Z,53.30
2018-08-18T19:03:59.743Z,53.50
2018-08-18T19:06:28.537Z,53.80
2018-08-18T19:09:00.388Z,53.60
2018-08-18T19:11:29.198Z,53.80
2018-08-18T19:13:58.300Z,54.10
2018-08-18T19:16:27.303Z,54.20
2018-08-18T19:18:56.140Z,54.50
2018-08-18T19:21:30.043Z,54.80
2018-08-18T19:23:58.856Z,55.00
2018-08-18T19:26:36.416Z,55.10
2018-08-18T19:29:05.211Z,56.00
2018-08-18T19:31:35.468Z,55.90
2018-08-18T19:34:10.680Z,56.30
2018-08-18T19:36:53.434Z,56.20
2018-08-18T19:39:23.443Z,56.70
2018-08-18T19:41:52.209Z,57.10
2018-08-18T19:44:20.928Z,57.50
2018-08-18T19:46:49.698Z,58.80
2018-08-18T19:49:29.543Z,59.70
2018-08-18T19:52:02.470Z,60.60
2018-08-18T19:54:31.134Z,61.90
2018-08-18T19:56:59.853Z,62.70
2018-08-18T19:59:28.581Z,62.30
2018-08-18T20:01:57.364Z,63.80
2018-08-18T20:04:31.645Z,64.70
2018-08-18T20:07:00.358Z,65.60
2018-08-18T20:09:29.087Z,66.00
2018-08-18T20:11:58.058Z,66.80
2018-08-18T20:14:26.806Z,66.90
2018-08-18T20:16:55.848Z,68.00
2018-08-18T20:19:24.600Z,68.30
2018-08-18T20:21:53.384Z,68.70
2018-08-18T20:24:22.066Z,69.20
2018-08-18T20:26:50.761Z,69.70
2018-08-18T20:29:19.492Z,70.10
2018-08-18T20:31:59.224Z,70.60
2018-08-18T20:34:28.305Z,70.50
2018-08-18T20:36:57.136Z,71.20
2018-08-18T20:39:28.199Z,71.60
2018-08-18T20:41:57.388Z,72.50
2018-08-18T20:44:29.250Z,72.50
2018-08-18T20:46:58.331Z,72.40
2018-08-18T20:49:27.143Z,72.50
2018-08-18T20:51:55.877Z,72.70
2018-08-18T20:54:24.687Z,73.50
2018-08-18T20:56:53.423Z,73.90
2018-08-18T20:59:22.147Z,74.10
2018-08-18T21:01:50.902Z,74.50
2018-08-18T21:04:19.668Z,74.60
2018-08-18T21:06:48.471Z,75.50
2018-08-18T21:09:28.070Z,75.80
2018-08-18T21:11:56.772Z,76.70
2018-08-18T21:14:29.104Z,76.70
2018-08-18T21:16:57.954Z,77.00
2018-08-18T21:19:27.434Z,77.00
2018-08-18T21:21:56.725Z,77.40
2018-08-18T21:24:25.463Z,77.90
2018-08-18T21:26:54.152Z,77.80
2018-08-18T21:29:23.925Z,78.10
2018-08-18T21:31:52.667Z,78.40
2018-08-18T21:34:21.419Z,79.20
2018-08-18T21:36:50.139Z,80.30
2018-08-18T21:39:18.880Z,79.90
2018-08-18T21:41:48.531Z,80.10
2018-08-18T21:44:17.296Z,81.30
2018-08-18T21:46:46.089Z,81.60
2018-08-18T21:49:14.910Z,82.40
2018-08-18T21:51:43.634Z,82.20
2018-08-18T21:54:12.333Z,82.20
2018-08-18T21:56:42.359Z,82.30
2018-08-18T21:59:12.390Z,82.20
2018-08-18T22:01:41.160Z,82.40
2018-08-18T22:04:10.097Z,82.50
2018-08-18T22:06:39.044Z,83.00
2018-08-18T22:09:20.855Z,82.80
2018-08-18T22:11:49.619Z,83.30
2018-08-18T22:14:18.989Z,83.80
2018-08-18T22:16:52.977Z,84.10
2018-08-18T22:19:22.059Z,84.50
2018-08-18T22:21:50.810Z,84.70
2018-08-18T22:24:19.529Z,85.10
2018-08-18T22:26:48.319Z,86.20
2018-08-18T22:29:17.106Z,86.20
2018-08-18T22:31:45.866Z,86.20
2018-08-18T22:34:14.631Z,87.10
2018-08-18T22:36:43.430Z,86.80
2018-08-18T22:39:12.200Z,86.40
2018-08-18T22:41:42.673Z,86.50
2018-08-18T22:44:11.425Z,87.20
2018-08-18T22:46:40.142Z,87.80
2018-08-18T22:49:08.904Z,88.10
2018-08-18T22:51:37.670Z,88.10
2018-08-18T22:54:06.454Z,88.20
2018-08-18T22:56:37.137Z,88.80
2018-08-18T22:59:07.686Z,88.40
2018-08-18T23:01:37.721Z,88.20
2018-08-18T23:04:24.255Z,88.70
2018-08-18T23:06:53.069Z,88.60
2018-08-18T23:09:21.861Z,88.30
2018-08-18T23:11:50.561Z,88.70
2018-08-18T23:14:19.333Z,88.80
2018-08-18T23:16:48.067Z,89.60
2018-08-18T23:19:16.828Z,90.10
2018-08-18T23:21:45.568Z,90.50
2018-08-18T23:24:28.264Z,90.40
2018-08-18T23:26:57.018Z,90.60
2018-08-18T23:29:25.734Z,90.60
2018-08-18T23:31:54.454Z,90.50
2018-08-18T23:34:23.448Z,90.80
2018-08-18T23:36:52.614Z,91.20
2018-08-18T23:39:21.368Z,91.40
2018-08-18T23:41:58.424Z,91.70
2018-08-18T23:44:27.121Z,92.00
2018-08-18T23:46:55.892Z,92.30
2018-08-18T23:49:24.568Z,92.30
2018-08-18T23:51:53.370Z,92.70
2018-08-18T23:54:24.271Z,92.90
2018-08-18T23:56:53.303Z,93.00
2018-08-18T23:59:22.703Z,93.40
